Reklama

Seznam meteostanic a jejich METAR

Vyhledat místa podle abecedy:
A B C D E F G H I J K L M N O P Q R S T U V W X Y Z

Filtrovat:

ID stanice:
a/nebo
Název místa (fulltext):
 
Místo (ID)Naposledy načteno 
Brussels (EBBR) 15.11.2018 11:50 UTC Zobrazit METAR
EBBR 151150Z 14005KT 110V170 CAVOK 14/07 Q1024 NOSIG
Bucharest (LRBS) 15.11.2018 12:00 UTC Zobrazit METAR
LRBS 151200Z 08006KT 8000 FEW014 SCT058 11/07 Q1024 R07/29//95 NOSIG
Budapest (LHBP) 15.11.2018 12:00 UTC Zobrazit METAR
LHBP 151200Z 32005KT 9999 FEW036 BKN056 11/03 Q1029 NOSIG
Buenos Aires (SABE) 15.11.2018 12:00 UTC Zobrazit METAR
SABE 151200Z 29008KT 240V320 CAVOK 25/11 Q1008 NOSIG
Bujumbura (HBBA) 15.11.2018 07:00 UTC Zobrazit METAR
HBBA 150700Z 09002KT 9000 FEW015 SCT100 28/22 Q1013 NOSIG
Burgas (LBBG) 15.11.2018 12:00 UTC Zobrazit METAR
LBBG 151200Z 36011KT 9999 SCT025 11/05 Q1022 NOSIG
Bydgoszcz (EPBY) 15.11.2018 12:00 UTC Zobrazit METAR
EPBY 151200Z VRB02KT 9999 OVC041 10/04 Q1033
Cairo (HECA) 15.11.2018 12:00 UTC Zobrazit METAR
HECA 151200Z 31007KT 9999 SCT025 24/11 Q1013 NOSIG
Canberra (YSCB) 15.11.2018 12:00 UTC Zobrazit METAR
YSCB 151200Z AUTO 08008KT 9999 // OVC020 13/09 Q1024
Caracas (SVMP) Zatím nenačteno  
Cayenne (SOCA) 15.11.2018 12:00 UTC Zobrazit METAR
SOCA 151200Z AUTO 08006KT 040V110 9999 BKN016 BKN025 BKN033 28/25 Q1011 TEMPO 2000 SHRA BKN007 SCT012TCU
Charlotte Amalie (TIST) 15.11.2018 11:53 UTC Zobrazit METAR
TIST 151153Z 10009G20KT 10SM FEW035 28/23 A2999 RMK AO2 RAB17E26 SLP154 P0000 60000 T02780228 10278 20256 53017
Chisinau (LUKK) 15.11.2018 12:00 UTC Zobrazit METAR
LUKK 151200Z 02006KT 8000 OVC008 03/02 Q1025 R08/290199 NOSIG
Colombo (VCBI) 15.11.2018 11:10 UTC Zobrazit METAR
VCBI 151110Z VRB03KT 8000 SCT030 29/21 Q1007 NOSIG
Conakry (GUCY) 15.11.2018 12:00 UTC Zobrazit METAR
GUCY 151200Z 19008KT 9999 FEW015 30/25 Q1010 NOSIG
Constanta (LRCK) 15.11.2018 12:00 UTC Zobrazit METAR
LRCK 151200Z 01012KT 8000 BKN011 OVC023 06/05 Q1022 R36/29//95 NOSIG
Constantine (DABC) 15.11.2018 12:00 UTC Zobrazit METAR
DABC 151200Z 14005KT 110V170 9999 SCT030 BKN100 17/08 Q1019
Copenhagen (EKCH) 15.11.2018 11:50 UTC Zobrazit METAR
EKCH 151150Z 16008KT CAVOK 11/09 Q1030 NOSIG
Cork (EICK) 15.11.2018 12:00 UTC Zobrazit METAR
EICK 151200Z 24011KT 9999 -RADZ BKN009 BKN015 10/09 Q1011 NOSIG
Cotonou (DBBB) 15.11.2018 08:00 UTC Zobrazit METAR
DBBB 150800Z 25006KT 210V300 9999 SCT012 30/26 Q1011 TEMPO TS BKN012 FEW020CB
Curacao Island (TNCC) 15.11.2018 12:00 UTC Zobrazit METAR
TNCC 151200Z 12013KT 9999 FEW019 29/24 Q1012 NOSIG
Dakar (GOOY) 15.11.2018 12:00 UTC Zobrazit METAR
GOOY 151200Z 36012KT CAVOK 24/19 Q1013
Damascus (OSDI) 15.11.2018 12:00 UTC Zobrazit METAR
OSDI 151200Z 00000KT 9999 FEW030 14/09 Q1013
Debrecen (LHDC) 15.11.2018 11:45 UTC Zobrazit METAR
LHDC 151145Z 02009KT 9999 SCT040 13/03 Q1027 NOSIG
Delhi (VIDP) 15.11.2018 12:00 UTC Zobrazit METAR
VIDP 151200Z 29006KT 2200 FU NSC 24/17 Q1015 NOSIG
Dhaka (VGZR) Zatím nenačteno  
Diego Garcia (FJDG) 15.11.2018 11:55 UTC Zobrazit METAR
FJDG 151155Z 00000KT 9999 FEW021 32/27 A2980 RMK SLP088 60027 70029 8/100 T03210268 10321 20311 55003
Djibouti (HDAM) 15.11.2018 11:00 UTC Zobrazit METAR
HDAM 151100Z 08014KT 9999 BKN023 SCT026 31/24 Q1011
Dnipropetrovs'k (UKDD) 12.08.2013 14:00 UTC Zobrazit METAR
UKDD 121400Z CAVOK 33/13 Q1012 08090070 NOSIG
Dodoma (HTDO) 15.11.2018 12:00 UTC Zobrazit METAR
HTDO 151200Z 09010KT 9999 FEW050 32/10 Q1013 NOSIG
Doha (OTBD) 15.11.2018 12:00 UTC Zobrazit METAR
OTBD 151200Z 11013KT CAVOK 29/23 Q1011 NOSIG
Dortmund (EDLW) 15.11.2018 11:50 UTC Zobrazit METAR
EDLW 151150Z 16004KT 080V230 CAVOK 11/04 Q1025
Dresden (EDDC) 15.11.2018 11:50 UTC Zobrazit METAR
EDDC 151150Z 14008KT 090V180 CAVOK 11/04 Q1028 NOSIG
Dublin (EIDW) 15.11.2018 12:00 UTC Zobrazit METAR
EIDW 151200Z 16012KT 9999 SCT022 BKN026 14/10 Q1011 NOSIG
Dubrovnik (LDDU) 15.11.2018 12:00 UTC Zobrazit METAR
LDDU 151200Z 30007KT 250V340 CAVOK 17/M03 Q1022 NOSIG
Dushanbe (UTDD) Zatím nenačteno  
Dusseldorf (EDDL) 15.11.2018 11:50 UTC Zobrazit METAR
EDDL 151150Z 15010KT CAVOK 10/05 Q1025 NOSIG
Dzaoudzi (FMCZ) 15.11.2018 12:00 UTC Zobrazit METAR
FMCZ 151200Z AUTO 18008KT CAVOK 30/23 Q1011 NOSIG
Edinburgh (EGPH) 15.11.2018 11:50 UTC Zobrazit METAR
EGPH 151150Z 19006KT CAVOK 14/06 Q1013
Eindhoven (EHEH) 15.11.2018 10:55 UTC Zobrazit METAR
EHEH 151055Z AUTO VRB04KT 9999 OVC350 10/06 Q1025 BLU 13006KT CAVOK
Entebbe (HUEN) 02.09.2018 18:00 UTC Zobrazit METAR
HUEN 021800Z 18001KT 9999 FEW021 23/19 Q1015
Esbjerg (EKEB) 17.10.2018 14:50 UTC Zobrazit METAR
EKEB 171450Z 24006KT 7000 SCT010 16/14 Q1018
Faro (LPFR) 15.11.2018 12:00 UTC Zobrazit METAR
LPFR 151200Z 11010KT 9999 FEW018 SCT045 19/16 Q1014
Florence (LIRQ) 15.11.2018 11:50 UTC Zobrazit METAR
LIRQ 151150Z 36006KT 320V040 CAVOK 19/09 Q1023
Foggia, Gino Lisa (LIBF) 15.11.2018 11:50 UTC Zobrazit METAR
LIBF 151150Z 35016KT 9999 SCT030 18/09 Q1022
Fort de France (TFFF) 15.11.2018 11:00 UTC Zobrazit METAR
TFFF 151100Z AUTO 09009KT 9999 SCT025 BKN034 BKN042 27/23 Q1013 TEMPO 10015G25KT 4000 SHRA SCT018TCU
Frankfurt/ Main (EDDF) 15.11.2018 11:50 UTC Zobrazit METAR
EDDF 151150Z 07007KT 9000 OVC007 07/05 Q1028 NOSIG
Freetown (GFLL) 14.11.2018 07:00 UTC Zobrazit METAR
GFLL 140700Z VRB02KT 9999 BKN010 24/23 Q1009
Funafuti (NGFU) 15.11.2018 12:00 UTC Zobrazit METAR
NGFU 151200Z 00000KT 9999 FEW020 SCT110 30/23 Q1009
Gaborone (FBSK) 15.11.2018 12:00 UTC Zobrazit METAR
FBSK 151200Z VRB05KT CAVOK 35/04 Q1016 NOSIG
Předchozí 1 2 3 4 5 ... 9 Další
Reklama

Počasí na Váš email

Emaily jsou bez reklamy a bez spamu



Odhlásit newsletter

Reklama


Lunární kalendář

  • 23.11.
  • 30.11.
  • 07.12.
  • 15.12.



Reklama


Reklama
Povinné ručení
Reklama



Reklama